Current | Forecast
Updated: 1:30 AM MSK on August 21, 2017
Observed at Begishevo, Russia
Temperature 61°F
Humidity 82%
Dew Point 55°F
Wind WSW at 9 mph
Pressure 30.24 in (Steady)
Conditions Clear
Visibility -
UV N/A
Clouds
Yesterday's Maximum 77°F
Yesterday's Minimum 54°F approx.
Yesterday's Cooling Degree Days N/A approx.
Sunrise4:15 AM MSK
Sunset6:52 PM MSK
Moon Rise3:24 AM MSK
Moon Set6:44 PM MSK
Moon PhaseMoon Phase
Waning Crescent
Raw METARMETAR UWKE 202230Z 24004MPS CAVOK 16/13 Q1024 R21/090070 NOSIG RMK QFE751/1001


Monday
. High: 71° F.
Tuesday
. High: 75° F.
Wednesday
. High: 66° F.
Thursday
. High: 53° F.
Friday
. High: 53° F.
Saturday
. High: 51° F.
Sunday
. High: 53° F.
Monday
. High: 59° F.

Units: English | Metric

Find the Weather for any City, State or Zipcode, or Country:

U.S. State List | Severe Weather | Tropical Storms | Ski Conditions
United States | Canada | Central America | South America | Asia | Europe | Australia | Africa | Islands

Weather Underground

© Copyright 2017
The Weather Company, LLC